Time;durP1;ratioP1;P1;durP2;ratioP2;P2;SDS_P1;SDS_P2;PMS_P1;PMS_P2;Temp;Humidity;BMP_temperature;BMP_pressure;BME280_temperature;BME280_humidity;BME280_pressure;Samples;Min_cycle;Max_cycle;Signal;HPM_P1;HPM_P2
2022/04/03 00:01:32;;;;;;;;;0.00;0.00;;;;;15.73;40.47;102450.28;4914441;29;9635;-67
2022/04/03 00:03:57;;;;;;;;;0.00;0.00;;;;;15.74;40.20;102452.06;4914863;29;9610;-66
2022/04/03 00:06:22;;;;;;;;;1.00;0.00;;;;;15.72;40.32;102445.84;4914271;29;8824;-68
2022/04/03 00:08:48;;;;;;;;;0.00;0.00;;;;;15.71;40.43;102437.94;4914362;29;9624;-67
2022/04/03 00:11:13;;;;;;;;;0.75;0.75;;;;;15.70;40.20;102447.56;4914877;29;8849;-67
2022/04/03 00:13:39;;;;;;;;;0.50;0.50;;;;;15.72;40.54;102448.47;4917505;29;8828;-68
2022/04/03 00:16:06;;;;;;;;;0.75;0.00;;;;;15.70;40.36;102438.78;4913085;29;8832;-66
2022/04/03 00:18:32;;;;;;;;;0.00;0.00;;;;;15.70;40.25;102446.66;4915054;29;8828;-67
2022/04/03 00:20:57;;;;;;;;;1.00;0.00;;;;;15.68;40.12;102443.09;4914706;29;10231;-67
2022/04/03 00:23:23;;;;;;;;;0.75;0.75;;;;;15.69;40.25;102440.50;4914098;29;9428;-66
2022/04/03 00:25:50;;;;;;;;;0.00;0.00;;;;;15.69;40.32;102444.88;4914193;29;8820;-66
2022/04/03 00:28:15;;;;;;;;;1.00;1.00;;;;;15.69;40.42;102443.13;4914882;29;9362;-67
2022/04/03 00:30:41;;;;;;;;;0.50;0.50;;;;;15.71;40.68;102443.19;4914338;29;10096;-68
2022/04/03 00:33:06;;;;;;;;;0.00;0.00;;;;;15.66;40.48;102444.81;4914615;29;8849;-66
2022/04/03 00:35:32;;;;;;;;;0.00;0.00;;;;;15.68;40.59;102443.97;4913430;29;9605;-67
2022/04/03 00:37:57;;;;;;;;;0.00;0.00;;;;;15.66;40.53;102440.44;4913790;29;8894;-67
2022/04/03 00:40:26;;;;;;;;;0.25;0.25;;;;;15.68;40.41;102446.63;4914667;29;8863;-66
2022/04/03 00:42:51;;;;;;;;;0.00;0.00;;;;;15.67;40.69;102441.34;4914009;29;8832;-67
2022/04/03 00:45:17;;;;;;;;;0.50;0.50;;;;;15.67;40.43;102436.94;4912848;29;9618;-68
2022/04/03 00:47:42;;;;;;;;;0.50;0.50;;;;;15.67;40.42;102434.28;4914460;29;8843;-68
2022/04/03 00:50:08;;;;;;;;;0.00;0.00;;;;;15.64;40.59;102438.59;4912725;29;8863;-67
2022/04/03 00:52:33;;;;;;;;;0.00;0.00;;;;;15.69;40.41;102434.34;4914217;29;8844;-67
2022/04/03 00:54:59;;;;;;;;;0.00;0.00;;;;;15.67;40.39;102438.69;4913936;29;8831;-67
2022/04/03 00:57:26;;;;;;;;;0.00;0.00;;;;;15.65;40.29;102432.47;4912326;29;8833;-68
2022/04/03 00:59:53;;;;;;;;;0.00;0.00;;;;;15.65;40.49;102441.28;4914294;29;9585;-66
2022/04/03 01:02:19;;;;;;;;;0.00;0.00;;;;;15.62;40.50;102428.03;4914243;29;9393;-67
2022/04/03 01:04:44;;;;;;;;;0.00;0.00;;;;;15.62;40.45;102438.56;4913631;29;9644;-68
2022/04/03 01:07:09;;;;;;;;;0.00;0.00;;;;;15.64;40.53;102436.84;4912588;29;8887;-67
2022/04/03 01:09:35;;;;;;;;;0.00;0.00;;;;;15.63;40.57;102436.84;4913758;29;8816;-67
2022/04/03 01:12:00;;;;;;;;;0.00;0.00;;;;;15.62;40.62;102433.31;4912421;29;9565;-66
2022/04/03 01:14:34;;;;;;;;;0.00;0.00;;;;;15.63;40.43;102427.19;4919710;29;8836;-67
2022/04/03 01:16:59;;;;;;;;;1.00;0.00;;;;;15.63;40.53;102440.38;4911701;29;8978;-67
2022/04/03 01:19:24;;;;;;;;;1.25;1.00;;;;;15.61;40.53;102441.16;4913023;29;9736;-67
2022/04/03 01:21:53;;;;;;;;;0.25;0.25;;;;;15.63;40.51;102432.47;4913362;29;8840;-67
2022/04/03 01:24:19;;;;;;;;;1.00;1.00;;;;;15.61;40.35;102434.16;4913367;29;8868;-66
2022/04/03 01:26:45;;;;;;;;;1.50;1.50;;;;;15.60;40.44;102445.53;4911752;29;9509;-67
2022/04/03 01:29:10;;;;;;;;;0.00;0.00;;;;;15.61;40.53;102436.78;4913103;29;10405;-67
2022/04/03 01:31:36;;;;;;;;;0.00;0.00;;;;;15.61;40.47;102436.78;4913140;29;11649;-66
2022/04/03 01:34:01;;;;;;;;;0.50;0.50;;;;;15.61;40.45;102430.63;4912087;29;9734;-67
2022/04/03 01:36:26;;;;;;;;;0.00;0.00;;;;;15.62;40.50;102424.50;4912139;29;8832;-66
2022/04/03 01:38:51;;;;;;;;;1.00;0.00;;;;;15.58;40.69;102425.28;4912958;29;8860;-67
2022/04/03 01:41:17;;;;;;;;;0.00;0.00;;;;;15.58;40.48;102420.91;4911940;29;8835;-68
2022/04/03 01:43:42;;;;;;;;;0.00;0.00;;;;;15.56;40.63;102414.69;4913193;29;8839;-67
2022/04/03 01:46:07;;;;;;;;;1.00;1.00;;;;;15.59;40.71;102422.69;4911483;29;8820;-67
2022/04/03 01:48:32;;;;;;;;;0.00;0.00;;;;;15.60;40.54;102416.56;4912375;29;9561;-67
2022/04/03 01:50:58;;;;;;;;;0.00;0.00;;;;;15.59;40.54;102416.53;4912864;29;8812;-67
2022/04/03 01:53:25;;;;;;;;;0.00;0.00;;;;;15.57;40.61;102412.97;4912343;29;8945;-68
2022/04/03 01:56:01;;;;;;;;;0.00;0.00;;;;;15.58;40.49;102418.28;4911455;29;8812;-67
2022/04/03 01:58:26;;;;;;;;;1.00;0.25;;;;;15.59;40.27;102421.81;4912776;29;9745;-67
2022/04/03 02:00:52;;;;;;;;;0.00;0.00;;;;;15.58;40.42;102413.00;4912575;29;9625;-67
2022/04/03 02:03:17;;;;;;;;;0.00;0.00;;;;;15.56;40.35;102413.84;4913127;29;8844;-67
2022/04/03 02:05:43;;;;;;;;;0.00;0.00;;;;;15.54;40.39;102418.16;4911807;29;8824;-67
2022/04/03 02:08:08;;;;;;;;;0.00;0.00;;;;;15.58;40.47;102407.75;4911531;29;9768;-66
2022/04/03 02:10:33;;;;;;;;;0.00;0.00;;;;;15.57;40.40;102413.84;4913160;29;8844;-67
2022/04/03 02:12:59;;;;;;;;;0.00;0.00;;;;;15.56;40.72;102412.06;4915003;29;8824;-67
2022/04/03 02:15:24;;;;;;;;;0.00;0.00;;;;;15.57;40.50;102412.97;4911169;29;8941;-67
2022/04/03 02:17:49;;;;;;;;;0.00;0.00;;;;;15.52;40.37;102401.44;4912689;29;8856;-67
2022/04/03 02:20:15;;;;;;;;;0.00;0.00;;;;;15.55;40.47;102410.31;4912579;29;8820;-67
2022/04/03 02:22:40;;;;;;;;;0.00;0.00;;;;;15.55;40.48;102412.94;4912108;29;8836;-67
2022/04/03 02:25:09;;;;;;;;;0.50;0.00;;;;;15.55;40.56;102414.69;4911938;29;8867;-67
2022/04/03 02:27:39;;;;;;;;;0.00;0.00;;;;;15.56;40.72;102409.44;4916245;29;8816;-67
2022/04/03 02:30:11;;;;;;;;;1.00;1.00;;;;;15.53;40.60;102413.72;4915359;29;9546;-68
2022/04/03 02:32:37;;;;;;;;;0.00;0.00;;;;;15.53;40.73;102413.72;4916401;29;9497;-67
2022/04/03 02:35:08;;;;;;;;;0.00;0.00;;;;;15.51;40.53;102411.06;4915000;29;9459;-67
2022/04/03 02:37:35;;;;;;;;;0.50;0.50;;;;;15.52;40.43;102407.59;4915684;29;9650;-67
2022/04/03 02:40:01;;;;;;;;;0.00;0.00;;;;;15.51;40.30;102405.81;4915784;29;9660;-67
2022/04/03 02:42:27;;;;;;;;;0.00;0.00;;;;;15.50;40.55;102408.38;4915774;29;9678;-67
2022/04/03 02:44:52;;;;;;;;;0.00;0.00;;;;;15.48;40.56;102409.19;4915803;29;9864;-68
2022/04/03 02:47:18;;;;;;;;;0.50;0.00;;;;;15.47;40.26;102407.44;4914916;29;8903;-67
2022/04/03 02:49:44;;;;;;;;;0.00;0.00;;;;;15.49;40.55;102412.75;4915485;29;8864;-67
2022/04/03 02:52:09;;;;;;;;;0.25;0.25;;;;;15.49;40.33;102418.03;4915703;29;9693;-67
2022/04/03 02:54:35;;;;;;;;;0.25;0.00;;;;;15.47;40.49;102417.06;4915993;29;8832;-67
2022/04/03 02:57:01;;;;;;;;;0.75;0.75;;;;;15.46;40.51;102423.16;4913563;29;8859;-67
2022/04/03 02:59:26;;;;;;;;;0.00;0.00;;;;;15.46;40.36;102424.06;4916034;29;8884;-67
2022/04/03 03:01:51;;;;;;;;;1.00;0.00;;;;;15.42;40.63;102414.31;4915494;29;8812;-67
2022/04/03 03:04:17;;;;;;;;;0.25;0.00;;;;;15.44;40.50;102422.25;4914667;29;8841;-67
2022/04/03 03:06:42;;;;;;;;;0.50;0.50;;;;;15.46;40.60;102418.81;4914890;29;8840;-67
2022/04/03 03:09:07;;;;;;;;;0.00;0.00;;;;;15.41;40.49;102422.16;4915592;29;8836;-66
2022/04/03 03:11:33;;;;;;;;;0.00;0.00;;;;;15.45;40.33;102419.66;4915255;29;8836;-66
2022/04/03 03:13:58;;;;;;;;;0.00;0.00;;;;;15.44;40.44;102417.00;4916932;29;8947;-67
2022/04/03 03:16:23;;;;;;;;;0.00;0.00;;;;;15.44;40.32;102422.25;4914311;29;8851;-67
2022/04/03 03:18:49;;;;;;;;;0.00;0.00;;;;;15.45;40.53;102421.38;4914483;29;8847;-67
2022/04/03 03:21:15;;;;;;;;;0.00;0.00;;;;;15.45;40.50;102424.91;4915496;29;8820;-67
2022/04/03 03:23:41;;;;;;;;;0.00;0.00;;;;;15.45;40.34;102421.38;4915584;29;8832;-67
2022/04/03 03:26:06;;;;;;;;;0.00;0.00;;;;;15.46;40.28;102423.16;4913788;29;9561;-67
2022/04/03 03:28:32;;;;;;;;;0.00;0.00;;;;;15.45;40.89;102421.38;4915657;29;8907;-67
2022/04/03 03:31:00;;;;;;;;;0.00;0.00;;;;;15.41;40.28;102420.41;4915129;29;8836;-67
2022/04/03 03:33:25;;;;;;;;;0.00;0.00;;;;;15.42;40.54;102422.19;4914472;29;8827;-66
2022/04/03 03:35:50;;;;;;;;;0.00;0.00;;;;;15.44;40.33;102415.25;4914385;29;9530;-67
2022/04/03 03:38:16;;;;;;;;;0.00;0.00;;;;;15.39;40.19;102408.97;4913520;29;9590;-67
2022/04/03 03:40:41;;;;;;;;;0.50;0.50;;;;;15.40;40.25;102409.88;4914433;29;8933;-67
2022/04/03 03:43:09;;;;;;;;;0.00;0.00;;;;;15.41;40.23;102415.16;4914743;29;8859;-67
2022/04/03 03:45:35;;;;;;;;;0.00;0.00;;;;;15.39;40.38;102413.34;4913894;29;8870;-68
2022/04/03 03:48:00;;;;;;;;;0.00;0.00;;;;;15.42;40.20;102419.56;4914438;29;9635;-67
2022/04/03 03:50:26;;;;;;;;;0.00;0.00;;;;;15.44;40.29;102411.72;4914955;29;9598;-66
2022/04/03 03:52:51;;;;;;;;;0.00;0.00;;;;;15.36;40.33;102410.63;4914426;29;8843;-67
2022/04/03 03:55:16;;;;;;;;;0.00;0.00;;;;;15.38;40.58;102417.69;4913468;29;8872;-66
2022/04/03 03:57:46;;;;;;;;;0.00;0.00;;;;;15.41;40.17;102409.88;4914941;29;8860;-69
2022/04/03 04:00:11;;;;;;;;;2.00;0.00;;;;;15.38;40.45;102414.19;4913724;29;8829;-66
2022/04/03 04:02:37;;;;;;;;;1.00;0.00;;;;;15.38;40.31;102406.28;4914642;29;9523;-67
2022/04/03 04:05:03;;;;;;;;;0.00;0.00;;;;;15.38;40.43;102409.81;4913696;29;8813;-67
2022/04/03 04:07:41;;;;;;;;;0.00;0.00;;;;;15.40;40.37;102418.66;4925647;29;8829;-66
2022/04/03 04:10:07;;;;;;;;;0.00;0.00;;;;;15.40;40.43;102421.28;4933845;29;11604;-67
2022/04/03 04:12:34;;;;;;;;;0.00;0.00;;;;;15.38;40.30;102422.97;4931944;29;9470;-67
2022/04/03 04:15:00;;;;;;;;;0.25;0.25;;;;;15.36;40.38;102434.31;4933598;29;9430;-67
2022/04/03 04:17:25;;;;;;;;;1.00;1.00;;;;;15.37;40.43;102431.69;4934422;29;10464;-67
2022/04/03 04:19:50;;;;;;;;;0.00;0.00;;;;;15.37;40.36;102426.44;4934233;29;8852;-67
2022/04/03 04:22:16;;;;;;;;;0.00;0.00;;;;;15.37;40.26;102431.69;4933630;29;8813;-66
2022/04/03 04:24:42;;;;;;;;;1.00;1.00;;;;;15.34;40.46;102431.63;4934220;29;8801;-67
2022/04/03 04:27:07;;;;;;;;;0.00;0.00;;;;;15.36;40.38;102429.06;4933546;29;9679;-66
2022/04/03 04:29:33;;;;;;;;;0.00;0.00;;;;;15.33;40.31;102435.09;4933709;29;8793;-67
2022/04/03 04:31:58;;;;;;;;;0.00;0.00;;;;;15.35;40.41;102433.41;4933824;29;8821;-68
2022/04/03 04:34:23;;;;;;;;;0.75;0.00;;;;;15.36;40.27;102434.31;4934126;29;8817;-67
2022/04/03 04:36:48;;;;;;;;;0.00;0.00;;;;;15.37;40.31;102433.47;4933562;29;8829;-68
2022/04/03 04:39:14;;;;;;;;;0.75;0.75;;;;;15.33;40.32;102435.09;4933754;29;8873;-68
2022/04/03 04:41:40;;;;;;;;;0.00;0.00;;;;;15.35;40.47;102438.69;4933719;29;8786;-68
2022/04/03 04:44:05;;;;;;;;;0.00;0.00;;;;;15.29;40.46;102435.00;4932871;29;8863;-67
2022/04/03 04:46:31;;;;;;;;;0.00;0.00;;;;;15.34;40.46;102430.72;4933953;29;9641;-67
2022/04/03 04:48:57;;;;;;;;;0.00;0.00;;;;;15.32;40.22;102429.81;4932809;29;8797;-67
2022/04/03 04:51:22;;;;;;;;;0.00;0.00;;;;;15.33;40.24;102428.97;4933341;29;8786;-67
2022/04/03 04:53:47;;;;;;;;;0.00;0.00;;;;;15.32;40.41;102435.06;4934075;29;8883;-68
2022/04/03 04:56:13;;;;;;;;;0.00;0.00;;;;;15.30;40.16;102437.66;4932788;29;8812;-66
2022/04/03 04:58:38;;;;;;;;;0.00;0.00;;;;;15.29;40.12;102435.91;4933404;29;8853;-67
2022/04/03 05:01:04;;;;;;;;;0.00;0.00;;;;;15.29;40.18;102429.75;4933211;29;8801;-67
2022/04/03 05:03:29;;;;;;;;;0.00;0.00;;;;;15.30;40.03;102431.50;4932988;29;8837;-67
2022/04/03 05:05:55;;;;;;;;;0.00;0.00;;;;;15.28;40.18;102420.06;4933176;29;9523;-66
2022/04/03 05:08:20;;;;;;;;;0.00;0.00;;;;;15.27;40.22;102426.16;4932917;29;8821;-67
2022/04/03 05:10:46;;;;;;;;;1.00;0.00;;;;;15.26;40.53;102425.25;4932651;29;9592;-67
2022/04/03 05:13:11;;;;;;;;;0.00;0.00;;;;;15.26;40.15;102419.13;4930722;29;9408;-67
2022/04/03 05:15:37;;;;;;;;;0.00;0.00;;;;;15.26;40.45;102425.25;4933154;29;8916;-67
2022/04/03 05:18:02;;;;;;;;;0.00;0.00;;;;;15.24;40.21;102426.06;4932282;29;8822;-67
2022/04/03 05:20:28;;;;;;;;;0.00;0.00;;;;;15.25;40.42;102423.50;4933108;29;8801;-68
2022/04/03 05:22:53;;;;;;;;;0.00;0.00;;;;;15.26;40.28;102421.75;4932609;29;8834;-67
2022/04/03 05:25:19;;;;;;;;;0.00;0.00;;;;;15.27;40.47;102419.16;4932392;29;8817;-69
2022/04/03 05:27:44;;;;;;;;;0.00;0.00;;;;;15.24;40.29;102419.06;4933130;29;8802;-67
2022/04/03 05:30:10;;;;;;;;;0.00;0.00;;;;;15.23;40.18;102419.91;4932282;29;8834;-67
2022/04/03 05:32:36;;;;;;;;;0.00;0.00;;;;;15.28;39.96;102417.41;4932127;29;9559;-67
2022/04/03 05:35:03;;;;;;;;;0.00;0.00;;;;;15.24;40.27;102423.44;4932608;29;9572;-67
2022/04/03 05:37:29;;;;;;;;;0.00;0.00;;;;;15.24;40.15;102416.44;4932588;29;8845;-68
2022/04/03 05:39:55;;;;;;;;;0.25;0.00;;;;;15.26;40.32;102416.50;4932075;29;9691;-68
2022/04/03 05:42:21;;;;;;;;;0.00;0.00;;;;;15.25;40.19;102422.59;4933098;29;8821;-67
2022/04/03 05:44:47;;;;;;;;;0.00;0.00;;;;;15.26;40.23;102424.41;4932405;29;8805;-66
2022/04/03 05:47:12;;;;;;;;;0.00;0.00;;;;;15.25;40.33;102427.88;4932136;29;11533;-67
2022/04/03 05:49:38;;;;;;;;;0.00;0.00;;;;;15.23;40.30;102416.38;4932619;29;8977;-67
2022/04/03 05:52:04;;;;;;;;;0.00;0.00;;;;;15.24;40.31;102416.44;4932369;29;8849;-67
2022/04/03 05:54:29;;;;;;;;;0.00;0.00;;;;;15.24;40.08;102421.72;4932709;29;8851;-67
2022/04/03 05:56:55;;;;;;;;;0.00;0.00;;;;;15.25;40.30;102422.59;4932295;29;9545;-67
2022/04/03 05:59:20;;;;;;;;;0.00;0.00;;;;;15.24;40.31;102418.19;4932692;29;8806;-67
2022/04/03 06:01:47;;;;;;;;;0.25;0.25;;;;;15.25;40.42;102418.22;4934763;29;8798;-67
2022/04/03 06:04:12;;;;;;;;;0.75;0.75;;;;;15.30;40.20;102419.22;4936107;29;8808;-68
2022/04/03 06:06:38;;;;;;;;;0.00;0.00;;;;;15.30;40.15;102426.22;4935706;29;9757;-66
2022/04/03 06:09:04;;;;;;;;;0.00;0.00;;;;;15.31;39.93;102425.38;4936314;29;8880;-67
2022/04/03 06:11:29;;;;;;;;;0.00;0.00;;;;;15.35;39.99;102430.78;4936010;29;10352;-68
2022/04/03 06:13:54;;;;;;;;;0.00;0.00;;;;;15.34;40.01;102425.47;4933230;29;8918;-67
2022/04/03 06:16:20;;;;;;;;;0.00;0.00;;;;;15.34;39.93;102433.34;4936336;29;8786;-67
2022/04/03 06:18:45;;;;;;;;;0.00;0.00;;;;;15.37;39.92;102438.72;4936185;29;8853;-68
2022/04/03 06:21:10;;;;;;;;;0.00;0.00;;;;;15.37;39.88;102439.59;4935487;29;8815;-67
2022/04/03 06:23:36;;;;;;;;;0.00;0.00;;;;;15.36;39.71;102448.38;4936422;29;9499;-68
2022/04/03 06:26:02;;;;;;;;;0.00;0.00;;;;;15.38;39.87;102440.50;4935542;29;8890;-68
2022/04/03 06:28:28;;;;;;;;;0.00;0.00;;;;;15.38;39.51;102444.03;4935958;29;8817;-67
2022/04/03 06:30:54;;;;;;;;;0.00;0.00;;;;;15.41;39.72;102445.84;4935796;29;9518;-68
2022/04/03 06:33:20;;;;;;;;;0.00;0.00;;;;;15.39;39.45;102443.19;4935937;29;8833;-68
2022/04/03 06:35:46;;;;;;;;;0.00;0.00;;;;;15.41;39.52;102452.00;4935748;29;9682;-68
2022/04/03 06:38:13;;;;;;;;;0.00;0.00;;;;;15.38;39.41;102445.75;4935709;29;8829;-68
2022/04/03 06:40:47;;;;;;;;;0.00;0.00;;;;;15.42;39.70;102448.53;4935839;29;8900;-68
2022/04/03 06:43:12;;;;;;;;;0.00;0.00;;;;;15.43;39.56;102452.06;4935006;29;9919;-67
2022/04/03 06:45:37;;;;;;;;;0.00;0.00;;;;;15.42;39.65;102445.00;4935904;29;9738;-67
2022/04/03 06:48:03;;;;;;;;;0.00;0.00;;;;;15.40;39.83;102447.59;4935476;29;8809;-67
2022/04/03 06:50:29;;;;;;;;;0.00;0.00;;;;;15.52;39.46;102447.09;4934667;29;8810;-67
2022/04/03 06:52:54;;;;;;;;;0.00;0.00;;;;;15.42;40.03;102450.25;4916757;29;8844;-67
2022/04/03 06:55:20;;;;;;;;;0.00;0.00;;;;;15.40;39.80;102446.72;4915743;29;8936;-67
2022/04/03 06:57:45;;;;;;;;;0.00;0.00;;;;;15.38;39.89;102451.91;4915324;29;8890;-67
2022/04/03 07:00:13;;;;;;;;;0.00;0.00;;;;;15.40;39.50;102450.25;4914513;29;9605;-67
2022/04/03 07:02:38;;;;;;;;;0.00;0.00;;;;;15.42;39.68;102452.88;4916156;29;8935;-67
2022/04/03 07:05:04;;;;;;;;;0.00;0.00;;;;;15.42;39.59;102456.41;4915301;29;9884;-67
2022/04/03 07:07:30;;;;;;;;;0.00;0.00;;;;;15.38;39.88;102451.91;4915448;29;9964;-67
2022/04/03 07:09:55;;;;;;;;;0.00;0.00;;;;;15.41;39.56;102454.63;4914151;29;11260;-67
2022/04/03 07:12:22;;;;;;;;;0.00;0.00;;;;;15.44;39.42;102457.38;4917356;29;8817;-67
2022/04/03 07:14:48;;;;;;;;;0.00;0.00;;;;;15.38;39.70;102457.19;4916121;29;8930;-66
2022/04/03 07:17:13;;;;;;;;;0.00;0.00;;;;;15.41;39.71;102457.25;4914788;29;10509;-67
2022/04/03 07:19:38;;;;;;;;;0.00;0.00;;;;;15.42;39.56;102456.41;4914448;29;9636;-68
2022/04/03 07:22:04;;;;;;;;;1.00;1.00;;;;;15.41;39.68;102453.72;4914820;29;9589;-67
2022/04/03 07:24:30;;;;;;;;;0.00;0.00;;;;;15.41;39.32;102453.72;4914862;29;8832;-67
2022/04/03 07:26:55;;;;;;;;;0.00;0.00;;;;;15.42;39.50;102459.06;4915225;29;8836;-67
2022/04/03 07:29:21;;;;;;;;;0.00;0.00;;;;;15.44;39.62;102456.47;4914710;29;8817;-68
2022/04/03 07:31:46;;;;;;;;;0.00;0.00;;;;;15.45;39.55;102453.88;4914484;29;8835;-68
2022/04/03 07:34:12;;;;;;;;;0.00;0.00;;;;;15.46;39.63;102453.03;4915237;29;9384;-67
2022/04/03 07:36:37;;;;;;;;;0.00;0.00;;;;;15.47;39.68;102449.56;4914730;29;9607;-67
2022/04/03 07:39:03;;;;;;;;;0.00;0.00;;;;;15.48;39.45;102448.69;4914504;29;8855;-67
2022/04/03 07:41:28;;;;;;;;;0.00;0.00;;;;;15.48;39.53;102453.06;4914140;29;8836;-67
2022/04/03 07:43:53;;;;;;;;;0.00;0.00;;;;;15.48;39.72;102458.34;4914470;29;8868;-67
2022/04/03 07:46:18;;;;;;;;;0.00;0.00;;;;;15.48;39.53;102451.31;4914935;29;8813;-66
2022/04/03 07:48:44;;;;;;;;;0.00;0.00;;;;;15.54;39.42;102455.00;4915429;29;8909;-67
2022/04/03 07:51:11;;;;;;;;;0.00;0.00;;;;;15.52;39.47;102457.63;4912984;29;8812;-67
2022/04/03 07:53:37;;;;;;;;;0.00;0.00;;;;;15.51;39.70;102463.72;4914594;29;8958;-67
2022/04/03 07:56:04;;;;;;;;;0.75;0.00;;;;;15.57;39.32;102455.97;4914779;29;9664;-67
2022/04/03 07:58:29;;;;;;;;;0.00;0.00;;;;;15.56;39.49;102456.81;4914513;29;11549;-67
2022/04/03 08:00:54;;;;;;;;;0.00;0.00;;;;;15.50;40.12;102456.66;4913085;29;9514;-67
2022/04/03 08:03:20;;;;;;;;;0.00;0.00;;;;;15.56;39.77;102456.81;4914994;29;8863;-67
2022/04/03 08:05:45;;;;;;;;;0.00;0.00;;;;;15.55;39.66;102462.97;4914656;29;8938;-67
2022/04/03 08:08:10;;;;;;;;;0.00;0.00;;;;;15.54;39.89;102465.53;4913964;29;8848;-67
2022/04/03 08:10:36;;;;;;;;;0.00;0.00;;;;;15.52;39.90;102468.16;4913483;29;8855;-67
2022/04/03 08:13:01;;;;;;;;;0.00;0.00;;;;;15.53;39.88;102469.91;4916608;29;8827;-67
2022/04/03 08:15:27;;;;;;;;;0.00;0.00;;;;;15.51;39.94;102473.34;4914193;29;8824;-66
2022/04/03 08:17:53;;;;;;;;;1.75;0.00;;;;;15.50;40.13;102471.56;4914062;29;8840;-67
2022/04/03 08:20:18;;;;;;;;;0.00;0.00;;;;;15.52;40.24;102467.25;4912544;29;9558;-67
2022/04/03 08:22:45;;;;;;;;;0.00;0.00;;;;;15.53;40.22;102471.63;4914558;29;8860;-67
2022/04/03 08:25:12;;;;;;;;;0.00;0.00;;;;;15.51;40.15;102466.34;4913589;29;8829;-67
2022/04/03 08:27:49;;;;;;;;;0.00;0.00;;;;;15.52;40.09;102475.16;4914339;29;9344;-68
2022/04/03 08:30:18;;;;;;;;;0.00;0.00;;;;;15.53;40.29;102482.16;4913087;29;9673;-68
2022/04/03 08:32:44;;;;;;;;;0.50;0.50;;;;;15.55;40.27;102475.22;4914003;29;9467;-67
2022/04/03 08:35:11;;;;;;;;;0.00;0.00;;;;;15.52;40.29;102473.41;4913576;29;9424;-68
2022/04/03 08:37:36;;;;;;;;;0.00;0.00;;;;;15.54;40.37;102474.31;4914105;29;11616;-67
2022/04/03 08:40:03;;;;;;;;;0.00;0.00;;;;;15.54;40.29;102476.97;4912614;29;9477;-66
2022/04/03 08:42:29;;;;;;;;;0.00;0.00;;;;;15.54;40.38;102474.31;4913522;29;8832;-67
2022/04/03 08:44:54;;;;;;;;;0.00;0.00;;;;;15.54;40.39;102470.78;4914073;29;9469;-67
2022/04/03 08:47:20;;;;;;;;;0.00;0.00;;;;;15.57;40.46;102462.97;4913983;29;8846;-66
2022/04/03 08:49:47;;;;;;;;;0.00;0.00;;;;;15.57;40.42;102469.13;4912587;29;8836;-67
2022/04/03 08:52:13;;;;;;;;;0.00;0.00;;;;;15.75;44.10;102471.34;4914293;29;8804;-70
2022/04/03 08:54:40;;;;;;;;;0.00;0.00;;;;;15.85;45.21;102473.41;4914442;29;9446;-70
2022/04/03 08:57:05;;;;;;;;;0.00;0.00;;;;;15.84;44.21;102468.97;4914027;29;9570;-70
2022/04/03 08:59:30;;;;;;;;;0.00;0.00;;;;;15.82;46.88;102497.91;4914620;29;9443;-68
2022/04/03 09:01:56;;;;;;;;;0.00;0.00;;;;;16.04;51.75;102485.31;4914408;29;8816;-68
2022/04/03 09:04:21;;;;;;;;;1.00;1.00;;;;;16.18;57.72;102497.06;4913973;29;8796;-70
2022/04/03 09:06:58;;;;;;;;;0.25;0.25;;;;;16.15;49.52;102491.72;4914135;29;8983;-67
2022/04/03 09:09:25;;;;;;;;;0.67;0.67;;;;;16.20;54.76;102490.09;4913660;29;8835;-66
2022/04/03 09:12:10;;;;;;;;;0.00;0.00;;;;;16.12;53.51;102481.97;4915033;29;9226;-66
2022/04/03 09:14:43;;;;;;;;;0.00;0.00;;;;;16.13;55.43;102481.13;4895907;29;9480;-67
2022/04/03 09:17:08;;;;;;;;;0.50;0.50;;;;;16.40;56.55;102476.56;4894951;29;9388;-66
2022/04/03 09:19:34;;;;;;;;;3.75;1.00;;;;;16.28;54.23;102476.25;4895639;29;9643;-66
2022/04/03 09:22:03;;;;;;;;;0.25;0.25;;;;;16.10;52.74;102478.44;4894479;29;8794;-66
2022/04/03 09:24:29;;;;;;;;;0.00;0.00;;;;;16.13;51.95;102480.25;4894996;29;8803;-68
2022/04/03 09:27:02;;;;;;;;;0.00;0.00;;;;;16.35;49.97;102475.53;4895350;29;9585;-68
2022/04/03 09:29:28;;;;;;;;;1.00;1.00;;;;;16.24;51.92;102471.75;4894936;29;8822;-68
2022/04/03 09:32:01;;;;;;;;;0.00;0.00;;;;;16.14;50.80;102467.13;4894684;29;9376;-67
2022/04/03 09:34:29;;;;;;;;;0.00;0.00;;;;;16.06;51.17;102465.13;4903707;29;9638;-67
2022/04/03 09:37:05;;;;;;;;;0.25;0.25;;;;;16.05;49.99;102471.25;4912165;29;9558;-67
2022/04/03 09:39:30;;;;;;;;;2.00;0.00;;;;;16.04;49.33;102469.50;4912765;29;9452;-66
2022/04/03 09:42:07;;;;;;;;;0.00;0.00;;;;;16.09;49.29;102470.47;4913146;29;9428;-67
2022/04/03 09:44:35;;;;;;;;;0.00;0.00;;;;;16.14;48.26;102458.31;4912822;29;8950;-68
2022/04/03 09:47:36;;;;;;;;;0.50;0.50;;;;;16.20;47.94;102466.38;4912872;29;9544;-68
2022/04/03 09:50:04;;;;;;;;;0.00;0.00;;;;;16.17;47.51;102461.94;4854247;29;9551;-67
2022/04/03 09:52:38;;;;;;;;;0.00;0.00;;;;;16.16;47.11;102460.13;4901384;29;9413;-67
2022/04/03 09:55:23;;;;;;;;;0.00;0.00;;;;;16.10;47.29;102459.09;4912026;29;9521;-68
2022/04/03 09:58:03;;;;;;;;;1.50;0.75;;;;;16.11;46.04;102447.72;4913150;29;9554;-68
2022/04/03 10:00:33;;;;;;;;;0.00;0.00;;;;;16.15;45.68;102449.56;4912449;29;9365;-67
2022/04/03 10:03:01;;;;;;;;;0.67;0.00;;;;;16.19;45.79;102448.78;4912516;29;9635;-68
2022/04/03 10:05:30;;;;;;;;;0.00;0.00;;;;;16.20;45.69;102437.38;4912955;29;9451;-67
2022/04/03 10:07:59;;;;;;;;;0.00;0.00;;;;;16.19;45.03;102441.78;4894184;29;9379;-68
2022/04/03 10:10:25;;;;;;;;;0.00;0.00;;;;;16.08;44.82;102432.72;4895475;29;9463;-67
2022/04/03 10:12:51;;;;;;;;;1.00;0.00;;;;;16.19;44.55;102444.41;4904822;29;9570;-68
2022/04/03 10:15:16;;;;;;;;;0.00;0.00;;;;;16.14;44.26;102434.59;4913417;29;9636;-68
2022/04/03 10:17:42;;;;;;;;;0.75;0.00;;;;;16.07;43.76;102438.84;4913759;29;8848;-67
2022/04/03 10:20:09;;;;;;;;;1.00;0.00;;;;;16.12;43.54;102439.81;4912836;29;8804;-67
2022/04/03 10:22:38;;;;;;;;;1.25;0.00;;;;;16.17;43.92;102438.22;4914067;29;9596;-66
2022/04/03 10:25:07;;;;;;;;;0.50;0.00;;;;;16.19;43.45;102438.25;4913496;29;9541;-67
2022/04/03 10:27:37;;;;;;;;;0.00;0.00;;;;;16.14;43.39;102435.50;4913553;29;9455;-67
2022/04/03 10:30:05;;;;;;;;;0.00;0.00;;;;;16.20;43.02;102429.47;4913402;29;9438;-68
2022/04/03 10:32:33;;;;;;;;;0.00;0.00;;;;;16.23;42.83;102427.78;4913455;29;10195;-67
2022/04/03 10:35:03;;;;;;;;;0.00;0.00;;;;;16.18;43.03;102426.81;4912718;29;9676;-67
2022/04/03 10:37:42;;;;;;;;;0.00;0.00;;;;;16.18;42.46;102429.47;4911980;29;9490;-68
2022/04/03 10:40:18;;;;;;;;;0.50;0.50;;;;;16.13;43.03;102438.09;4912610;29;9598;-68
2022/04/03 10:42:52;;;;;;;;;0.00;0.00;;;;;16.11;42.19;102424.91;4912649;29;9453;-68
2022/04/03 10:45:19;;;;;;;;;0.00;0.00;;;;;16.10;42.77;102422.22;4912602;29;9526;-68
2022/04/03 10:47:46;;;;;;;;;0.00;0.00;;;;;16.07;42.18;102424.78;4915460;29;9403;-68
2022/04/03 10:50:12;;;;;;;;;0.00;0.00;;;;;16.14;42.53;102426.69;4915447;29;9391;-68
2022/04/03 10:52:38;;;;;;;;;0.00;0.00;;;;;16.03;42.38;102413.28;4916102;29;9587;-68
2022/04/03 10:55:26;;;;;;;;;0.00;0.00;;;;;16.05;42.20;102423.84;4915036;29;9466;-68
2022/04/03 10:57:55;;;;;;;;;0.00;0.00;;;;;16.15;42.25;102413.56;4915274;29;8852;-67
2022/04/03 11:00:23;;;;;;;;;1.00;0.00;;;;;16.26;41.59;102421.72;4916810;29;9607;-67
2022/04/03 11:03:00;;;;;;;;;0.00;0.00;;;;;16.16;41.46;102420.59;4916521;29;9513;-67
2022/04/03 11:05:25;;;;;;;;;0.75;0.00;;;;;16.10;41.47;102412.56;4915522;29;9453;-68
2022/04/03 11:07:59;;;;;;;;;0.00;0.00;;;;;16.22;41.20;102418.13;4915896;29;9495;-67
2022/04/03 11:10:52;;;;;;;;;0.00;0.00;;;;;16.14;41.02;102414.44;4916093;29;8851;-67
2022/04/03 11:13:31;;;;;;;;;0.00;0.00;;;;;16.18;41.46;102408.38;4917336;29;9541;-67
2022/04/03 11:15:59;;;;;;;;;0.00;0.00;;;;;16.11;41.05;102406.44;4914951;29;9471;-67
2022/04/03 11:18:28;;;;;;;;;0.00;0.00;;;;;16.32;41.04;102406.94;4914835;29;9566;-68
2022/04/03 11:21:17;;;;;;;;;0.00;0.00;;;;;16.12;41.19;102409.97;4915458;29;9608;-68
2022/04/03 11:23:57;;;;;;;;;0.00;0.00;;;;;16.02;41.58;102406.22;4915434;29;9559;-67
2022/04/03 11:26:23;;;;;;;;;0.00;0.00;;;;;16.11;40.53;102413.47;4914915;29;9560;-68
2022/04/03 11:28:48;;;;;;;;;0.00;0.00;;;;;16.15;41.36;102407.41;4915711;29;9561;-67
2022/04/03 11:31:14;;;;;;;;;0.00;0.00;;;;;16.02;41.29;102400.94;4912818;29;9249;-68
2022/04/03 11:33:40;;;;;;;;;0.00;0.00;;;;;16.11;40.83;102409.09;4915749;29;8808;-68